SV2BBO-11 Weather Reports


Display with metric or nautical units.
time (UTC)temp
F
wind
direction
speed
MPH
gust
MPH
rain 1hr
in
rain 24hr
in
rain mn
in
humidity
%
barometer
mb
20220706043751 78 0 0.0 4.0 0.00 0.00 0.00 67 1011.8
20220706043251 77 0 0.0 4.0 0.00 0.00 0.00 67 1011.9
20220706042752 77 0 0.0 4.0 0.00 0.00 0.00 66 1011.8
20220706042251 76 334 1.0 4.0 0.00 0.00 0.00 67 1011.8
20220706041752 76 0 0.0 4.0 0.00 0.00 0.00 69 1011.8
20220706040819 76 343 2.0 6.0 0.00 0.00 0.00 69 1011.8
20220706040317 76 331 1.0 6.0 0.00 0.00 0.00 70 1011.8
20220706035817 76 316 1.0 6.0 0.00 0.00 0.00 70 1011.9
20220706035317 76 0 0.0 5.0 0.00 0.00 0.00 69 1011.9
20220706034817 76 0 0.0 4.0 0.00 0.00 0.00 69 1011.9
20220706034018 76 303 1.0 9.0 0.00 0.00 0.00 68 1011.9
20220706033516 76 319 2.0 9.0 0.00 0.00 0.00 68 1011.9
20220706033015 77 280 2.0 9.0 0.00 0.00 0.00 67 1011.8
20220706032515 77 317 2.0 8.0 0.00 0.00 0.00 67 1011.8
20220706032015 78 270 1.0 6.0 0.00 0.00 0.00 66 1011.7
20220706031117 79 262 2.0 8.0 0.00 0.00 0.00 64 1011.8
20220706030616 79 260 1.0 7.0 0.00 0.00 0.00 64 1011.7
20220706025825 79 0 0.0 4.0 0.00 0.00 0.00 60 1011.6
20220706025325 80 303 1.0 4.0 0.00 0.00 0.00 58 1011.6
20220706024825 80 0 0.0 3.0 0.00 0.00 0.00 55 1011.7
20220706024325 79 0 0.0 4.0 0.00 0.00 0.00 54 1011.6
20220706023825 80 0 0.0 4.0 0.00 0.00 0.00 54 1011.6
20220706023028 80 0 0.0 9.0 0.00 0.00 0.00 55 1011.6
20220706022527 80 340 1.0 9.0 0.00 0.00 0.00 54 1011.6
20220706022027 80 0 0.0 6.0 0.00 0.00 0.00 55 1011.6
20220706021527 79 0 0.0 6.0 0.00 0.00 0.00 55 1011.6
20220706021028 79 0 0.0 5.0 0.00 0.00 0.00 55 1011.6
20220706020130 79 346 2.0 6.0 0.00 0.00 0.00 55 1011.7
20220706015631 79 339 2.0 6.0 0.00 0.00 0.00 56 1011.6
20220706014946 79 332 2.0 8.0 0.00 0.00 0.00 57 1011.7
20220706014446 79 324 2.0 8.0 0.00 0.00 0.00 57 1011.7
20220706013946 79 333 2.0 6.0 0.00 0.00 0.00 56 1011.8
20220706013446 79 339 1.0 8.0 0.00 0.00 0.00 56 1011.8
20220706012947 79 335 2.0 8.0 0.00 0.00 0.00 56 1011.8
20220706012446 79 0 0.0 8.0 0.00 0.00 0.00 56 1011.8
20220706011948 78 0 0.0 6.0 0.00 0.00 0.00 56 1011.9
20220706011446 78 332 2.0 6.0 0.00 0.00 0.00 56 1012.0
20220706010548 78 0 0.0 4.0 0.00 0.00 0.00 57 1012.1
20220706010051 78 0 0.0 4.0 0.00 0.00 0.00 57 1012.3
20220706005355 78 0 0.0 1.0 0.00 0.00 0.00 57 1012.3
20220706004855 78 0 0.0 5.0 0.00 0.00 0.00 58 1012.4
20220706004355 78 0 0.0 5.0 0.00 0.00 0.00 58 1012.4
20220706003855 78 327 1.0 5.0 0.00 0.00 0.00 58 1012.5
20220706003357 78 331 1.0 5.0 0.00 0.00 0.00 58 1012.4
20220706002855 78 0 0.0 6.0 0.00 0.00 0.00 58 1012.4
20220706002359 78 342 3.0 10.0 0.00 0.00 0.00 58 1012.4
20220706001855 78 0 0.0 10.0 0.00 0.00 0.00 59 1012.3
20220706001210 78 346 4.0 15.0 0.00 0.00 0.00 59 1012.3
20220706000709 78 327 6.0 15.0 0.00 0.00 0.00 59 1012.3
20220706000052 79 327 11.0 21.0 0.00 0.00 0.00 60 1012.4
20220705235552 80 316 9.0 19.0 0.00 0.00 0.00 59 1012.3
20220705235053 81 321 8.0 19.0 0.00 0.00 0.00 56 1012.3
20220705234506 82 0 0.0 1.0 0.00 0.00 0.00 53 1011.7
20220705234007 82 0 0.0 3.0 0.00 0.00 0.00 52 1011.6
20220705233509 82 0 0.0 3.0 0.00 0.00 0.00 52 1011.3
20220705233006 82 0 0.0 3.0 0.00 0.00 0.00 50 1011.5
20220705232506 82 0 0.0 3.0 0.00 0.00 0.00 50 1011.8
20220705232006 82 0 0.0 3.0 0.00 0.00 0.00 50 1011.9
20220705231506 82 0 0.0 1.0 0.00 0.00 0.00 50 1012.1
20220705231007 82 0 0.0 1.0 0.00 0.00 0.00 50 1012.3
20220705230506 82 0 0.0 1.0 0.00 0.00 0.00 51 1012.4
20220705230006 82 0 0.0 5.0 0.00 0.00 0.00 51 1012.5
20220705225506 83 0 0.0 5.0 0.00 0.00 0.00 51 1012.7
20220705224952 83 308 1.0 8.0 0.00 0.00 0.00 51 1013.2
20220705224454 83 0 0.0 8.0 0.00 0.00 0.00 51 1013.4
20220705223952 83 331 2.0 8.0 0.00 0.00 0.00 51 1013.8
20220705223453 83 0 0.0 3.0 0.00 0.00 0.00 51 1013.9
20220705222954 83 0 0.0 5.0 0.00 0.00 0.00 50 1013.9
20220705222454 83 341 1.0 6.0 0.00 0.00 0.00 50 1013.9
20220705221953 83 0 0.0 6.0 0.00 0.00 0.00 50 1014.0
20220705221214 83 354 2.0 6.0 0.00 0.00 0.00 50 1014.0
20220705220525 83 328 3.0 10.0 0.00 0.00 0.00 50 1014.1
20220705220023 83 341 5.0 10.0 0.00 0.00 0.00 50 1014.1
20220705215524 83 322 2.0 13.0 0.00 0.00 0.00 50 1014.1
20220705215023 83 337 6.0 13.0 0.00 0.00 0.00 50 1014.0
20220705214523 83 335 4.0 11.0 0.00 0.00 0.00 50 1013.9
20220705213920 83 324 2.0 9.0 0.00 0.00 0.00 50 1013.8
20220705213417 83 3 2.0 14.0 0.00 0.00 0.00 50 1013.5
20220705212918 83 335 4.0 14.0 0.00 0.00 0.00 50 1013.6
20220705212331 83 335 6.0 15.0 0.00 0.00 0.00 51 1013.5
20220705211832 82 322 2.0 7.0 0.00 0.00 0.00 51 1013.4
20220705211333 82 0 0.0 3.0 0.00 0.00 0.00 52 1013.2
20220705210831 82 0 0.0 0.0 0.00 0.00 0.00 52 1013.0
20220705210331 82 0 0.0 0.0 0.00 0.00 0.00 52 1012.9
20220705205534 82 0 0.0 3.0 0.00 0.00 0.00 52 1012.8
20220705205036 82 0 0.0 1.0 0.00 0.00 0.00 52 1012.7
20220705204542 82 0 0.0 0.0 0.00 0.00 0.00 52 1012.5
20220705204034 82 0 0.0 1.0 0.00 0.00 0.00 52 1012.4
20220705203533 82 0 0.0 1.0 0.00 0.00 0.00 52 1012.4
20220705202830 82 0 0.0 1.0 0.00 0.00 0.00 52 1012.3
20220705202329 82 0 0.0 1.0 0.00 0.00 0.00 52 1012.3
20220705201829 82 0 0.0 0.0 0.00 0.00 0.00 53 1012.3
20220705201329 82 0 0.0 0.0 0.00 0.00 0.00 53 1012.3
20220705200829 82 0 0.0 1.0 0.00 0.00 0.00 53 1012.4
20220705200329 82 0 0.0 1.0 0.00 0.00 0.00 53 1012.2
20220705195829 82 0 0.0 1.0 0.00 0.00 0.00 53 1012.2
20220705195329 83 0 0.0 1.0 0.00 0.00 0.00 52 1012.2
20220705194409 83 0 0.0 2.0 0.00 0.00 0.00 52 1012.3
20220705193907 84 0 0.0 1.0 0.00 0.00 0.00 50 1012.3
20220705193407 84 0 0.0 3.0 0.00 0.00 0.00 49 1012.2
20220705192907 84 0 0.0 3.0 0.00 0.00 0.00 48 1012.2
20220705192408 84 0 0.0 5.0 0.00 0.00 0.00 48 1012.2
20220705191909 84 0 0.0 5.0 0.00 0.00 0.00 48 1012.3
20220705191407 84 0 0.0 6.0 0.00 0.00 0.00 48 1012.3
20220705190908 84 126 1.0 6.0 0.00 0.00 0.00 48 1012.3
20220705190410 85 0 0.0 5.0 0.00 0.00 0.00 49 1012.3
20220705185907 85 191 1.0 5.0 0.00 0.00 0.00 49 1012.2
20220705185407 85 0 0.0 4.0 0.00 0.00 0.00 48 1012.1
20220705184911 85 0 0.0 5.0 0.00 0.00 0.00 48 1012.1
20220705184407 85 190 1.0 7.0 0.00 0.00 0.00 48 1011.9
20220705183907 85 178 1.0 7.0 0.00 0.00 0.00 47 1011.7
20220705183407 86 0 0.0 1.0 0.00 0.00 0.00 47 1011.7
20220705182908 86 0 0.0 1.0 0.00 0.00 0.00 47 1011.7
20220705182202 86 0 0.0 4.0 0.00 0.00 0.00 47 1011.7
20220705181659 86 0 0.0 5.0 0.00 0.00 0.00 46 1011.7
20220705181200 86 178 1.0 5.0 0.00 0.00 0.00 46 1011.6
20220705180659 86 0 0.0 3.0 0.00 0.00 0.00 46 1011.6
20220705180159 86 0 0.0 4.0 0.00 0.00 0.00 46 1011.6
20220705175700 87 0 0.0 4.0 0.00 0.00 0.00 45 1011.6
20220705175159 87 0 0.0 5.0 0.00 0.00 0.00 46 1011.6
20220705174700 87 0 0.0 5.0 0.00 0.00 0.00 46 1011.6
20220705173755 87 0 0.0 5.0 0.00 0.00 0.00 45 1011.6
20220705173255 87 0 0.0 5.0 0.00 0.00 0.00 45 1011.5
20220705172652 87 187 2.0 6.0 0.00 0.00 0.00 45 1011.6
20220705172150 87 135 1.0 6.0 0.00 0.00 0.00 45 1011.6
20220705171650 88 0 0.0 6.0 0.00 0.00 0.00 45 1011.5
20220705171149 88 0 0.0 4.0 0.00 0.00 0.00 46 1011.5
20220705170650 88 0 0.0 3.0 0.00 0.00 0.00 46 1011.5
20220705170148 88 0 0.0 5.0 0.00 0.00 0.00 46 1011.5
20220705165648 88 0 0.0 6.0 0.00 0.00 0.00 46 1011.5
20220705165149 89 186 1.0 6.0 0.00 0.00 0.00 46 1011.3
20220705164653 89 182 1.0 6.0 0.00 0.00 0.00 45 1011.4
20220705164152 89 0 0.0 6.0 0.00 0.00 0.00 44 1011.4
20220705163648 89 219 1.0 6.0 0.00 0.00 0.00 45 1011.3
20220705162843 89 225 1.0 8.0 0.00 0.00 0.00 43 1011.3
20220705162342 89 192 3.0 9.0 0.00 0.00 0.00 42 1011.1
20220705161844 89 189 2.0 9.0 0.00 0.00 0.00 43 1011.1
20220705161342 89 0 0.0 7.0 0.00 0.00 0.00 43 1011.2
20220705160842 89 196 2.0 7.0 0.00 0.00 0.00 43 1011.3
20220705160230 89 188 1.0 8.0 0.00 0.00 0.00 44 1011.3
20220705155728 89 196 1.0 9.0 0.00 0.00 0.00 43 1011.3
20220705155232 90 197 2.0 9.0 0.00 0.00 0.00 43 1011.4
20220705154728 90 194 1.0 9.0 0.00 0.00 0.00 42 1011.4
20220705154228 90 186 2.0 9.0 0.00 0.00 0.00 41 1011.4
20220705153543 90 209 1.0 9.0 0.00 0.00 0.00 43 1011.5
20220705153043 90 208 2.0 9.0 0.00 0.00 0.00 43 1011.6
20220705152546 90 187 1.0 9.0 0.00 0.00 0.00 43 1011.5
20220705152044 90 198 1.0 9.0 0.00 0.00 0.00 42 1011.6
20220705151545 91 187 4.0 9.0 0.00 0.00 0.00 40 1011.7
20220705151052 91 231 1.0 11.0 0.00 0.00 0.00 41 1011.7
20220705150543 91 0 0.0 11.0 0.00 0.00 0.00 40 1011.8
20220705150043 91 0 0.0 7.0 0.00 0.00 0.00 40 1011.8
20220705145553 91 0 0.0 6.0 0.00 0.00 0.00 41 1011.7
20220705145045 91 0 0.0 8.0 0.00 0.00 0.00 41 1011.8
20220705144543 91 206 2.0 8.0 0.00 0.00 0.00 40 1011.8
20220705144045 91 186 3.0 8.0 0.00 0.00 0.00 40 1011.8
20220705143543 91 196 2.0 7.0 0.00 0.00 0.00 40 1011.7
20220705143045 92 181 1.0 10.0 0.00 0.00 0.00 39 1011.8
20220705142546 92 213 1.0 10.0 0.00 0.00 0.00 40 1011.9
20220705142043 92 228 1.0 6.0 0.00 0.00 0.00 41 1011.9
20220705141543 92 0 0.0 3.0 0.00 0.00 0.00 41 1011.9
20220705140721 92 0 0.0 9.0 0.00 0.00 0.00 42 1012.0
20220705140221 92 0 0.0 9.0 0.00 0.00 0.00 41 1012.0
20220705135721 92 0 0.0 6.0 0.00 0.00 0.00 42 1012.1
20220705135221 91 178 1.0 6.0 0.00 0.00 0.00 41 1012.2
20220705134721 92 0 0.0 5.0 0.00 0.00 0.00 43 1012.2
20220705133820 91 176 1.0 8.0 0.00 0.00 0.00 43 1012.3
20220705133320 91 195 1.0 8.0 0.00 0.00 0.00 43 1012.4
20220705132733 92 204 1.0 9.0 0.00 0.00 0.00 42 1012.5
20220705132233 91 0 0.0 9.0 0.00 0.00 0.00 42 1012.6
20220705131733 92 203 2.0 7.0 0.00 0.00 0.00 42 1012.7
20220705131233 91 197 2.0 7.0 0.00 0.00 0.00 43 1012.7
20220705130733 91 0 0.0 8.0 0.00 0.00 0.00 43 1012.8
20220705130237 91 220 1.0 10.0 0.00 0.00 0.00 43 1012.7
20220705125733 91 234 2.0 10.0 0.00 0.00 0.00 44 1012.8
20220705125233 91 244 2.0 8.0 0.00 0.00 0.00 46 1012.9
20220705124733 91 0 0.0 8.0 0.00 0.00 0.00 46 1012.9
20220705124233 91 182 1.0 9.0 0.00 0.00 0.00 45 1012.8
20220705123733 90 225 1.0 9.0 0.00 0.00 0.00 45 1012.9
20220705123234 91 191 2.0 8.0 0.00 0.00 0.00 44 1013.0
20220705122732 91 0 0.0 8.0 0.00 0.00 0.00 44 1012.8
20220705122234 91 200 2.0 6.0 0.00 0.00 0.00 42 1013.0
20220705121250 91 210 1.0 7.0 0.00 0.00 0.00 42 1013.1
20220705120750 91 0 0.0 8.0 0.00 0.00 0.00 43 1013.1
20220705120251 91 0 0.0 8.0 0.00 0.00 0.00 44 1013.3
20220705115750 91 257 1.0 6.0 0.00 0.00 0.00 41 1013.3
20220705115252 91 0 0.0 9.0 0.00 0.00 0.00 42 1013.4
20220705114750 91 221 1.0 9.0 0.00 0.00 0.00 42 1013.4
20220705114010 91 234 1.0 7.0 0.00 0.00 0.00 42 1013.5
20220705113338 91 0 0.0 7.0 0.00 0.00 0.00 45 1013.7
20220705112837 91 241 1.0 7.0 0.00 0.00 0.00 45 1013.7
20220705112338 90 257 2.0 9.0 0.00 0.00 0.00 45 1013.8
20220705111838 90 248 2.0 9.0 0.00 0.00 0.00 45 1013.8
20220705111337 90 237 1.0 7.0 0.00 0.00 0.00 46 1013.8
20220705110837 90 0 0.0 7.0 0.00 0.00 0.00 45 1013.8
20220705110337 91 182 2.0 9.0 0.00 0.00 0.00 42 1013.8
20220705105838 91 0 0.0 9.0 0.00 0.00 0.00 46 1013.9
20220705105337 91 241 1.0 5.0 0.00 0.00 0.00 44 1013.9
20220705104837 91 0 0.0 5.0 0.00 0.00 0.00 45 1013.9
20220705104338 91 0 0.0 4.0 0.00 0.00 0.00 43 1014.0
20220705103806 91 0 0.0 9.0 0.00 0.00 0.00 41 1013.9
20220705103306 91 251 1.0 7.0 0.00 0.00 0.00 41 1014.0
20220705102807 91 0 0.0 7.0 0.00 0.00 0.00 41 1014.0
20220705102306 90 0 0.0 6.0 0.00 0.00 0.00 40 1014.0
20220705101808 90 0 0.0 9.0 0.00 0.00 0.00 41 1014.1
20220705101306 90 301 1.0 9.0 0.00 0.00 0.00 41 1014.1
20220705100806 90 0 0.0 5.0 0.00 0.00 0.00 42 1014.1
20220705100308 90 0 0.0 7.0 0.00 0.00 0.00 42 1014.1
20220705095806 89 0 0.0 7.0 0.00 0.00 0.00 42 1014.1
20220705095306 89 252 1.0 9.0 0.00 0.00 0.00 42 1014.2
20220705094806 89 254 2.0 9.0 0.00 0.00 0.00 42 1014.3
20220705094306 89 249 2.0 7.0 0.00 0.00 0.00 43 1014.4
20220705093806 89 259 1.0 7.0 0.00 0.00 0.00 45 1014.3
20220705093306 89 0 0.0 6.0 0.00 0.00 0.00 47 1014.4
20220705092809 89 248 1.0 7.0 0.00 0.00 0.00 47 1014.5
20220705092306 89 251 1.0 7.0 0.00 0.00 0.00 48 1014.6
20220705091806 88 250 1.0 3.0 0.00 0.00 0.00 49 1014.8
20220705090942 88 0 0.0 8.0 0.00 0.00 0.00 49 1014.9
20220705090442 88 0 0.0 4.0 0.00 0.00 0.00 49 1014.8
20220705085942 88 266 1.0 6.0 0.00 0.00 0.00 51 1014.9
20220705085442 88 268 1.0 6.0 0.00 0.00 0.00 50 1014.8
20220705084944 87 253 1.0 5.0 0.00 0.00 0.00 50 1014.9
20220705084101 87 0 0.0 5.0 0.00 0.00 0.00 52 1014.9
20220705083601 86 0 0.0 4.0 0.00 0.00 0.00 54 1014.9
20220705083101 86 280 1.0 6.0 0.00 0.00 0.00 55 1014.9
20220705082601 86 259 1.0 6.0 0.00 0.00 0.00 56 1014.9
20220705082101 85 287 1.0 5.0 0.00 0.00 0.00 57 1014.9
20220705081140 86 288 2.0 7.0 0.00 0.00 0.00 56 1014.9
20220705080639 86 269 2.0 7.0 0.00 0.00 0.00 56 1015.0
20220705080029 86 272 1.0 6.0 0.00 0.00 0.00 56 1015.0
20220705075525 86 0 0.0 6.0 0.00 0.00 0.00 56 1015.0
20220705075026 86 266 1.0 6.0 0.00 0.00 0.00 56 1015.0
20220705074525 86 0 0.0 7.0 0.00 0.00 0.00 56 1015.0
20220705074025 86 301 1.0 7.0 0.00 0.00 0.00 55 1015.0
20220705073525 86 270 2.0 7.0 0.00 0.00 0.00 55 1015.0
20220705073025 86 295 1.0 7.0 0.00 0.00 0.00 55 1015.0
20220705072526 86 254 1.0 7.0 0.00 0.00 0.00 55 1014.9
20220705072026 86 264 2.0 7.0 0.00 0.00 0.00 54 1014.9
20220705071526 86 0 0.0 4.0 0.00 0.00 0.00 55 1014.8
20220705071026 86 277 1.0 4.0 0.00 0.00 0.00 55 1014.8
20220705070525 86 0 0.0 4.0 0.00 0.00 0.00 55 1014.8
20220705070025 85 0 0.0 3.0 0.00 0.00 0.00 55 1014.8
20220705065527 85 0 0.0 3.0 0.00 0.00 0.00 55 1014.7
20220705065025 85 0 0.0 2.0 0.00 0.00 0.00 54 1014.7
20220705064525 84 0 0.0 2.0 0.00 0.00 0.00 55 1014.7
20220705064025 84 0 0.0 1.0 0.00 0.00 0.00 56 1014.8
20220705063526 83 0 0.0 4.0 0.00 0.00 0.00 56 1014.8
20220705063025 84 304 1.0 4.0 0.00 0.00 0.00 56 1014.9
20220705062525 84 0 0.0 3.0 0.00 0.00 0.00 55 1014.9
20220705061602 84 0 0.0 4.0 0.00 0.00 0.00 55 1014.9
20220705061055 84 0 0.0 5.0 0.00 0.00 0.00 55 1014.9
20220705060555 84 302 1.0 5.0 0.00 0.00 0.00 54 1014.9
20220705060100 84 0 0.0 3.0 0.00 0.00 0.00 55 1015.0
20220705055600 84 0 0.0 3.0 0.00 0.00 0.00 55 1014.9
20220705055055 83 0 0.0 3.0 0.00 0.00 0.00 56 1015.1
20220705054556 83 0 0.0 3.0 0.00 0.00 0.00 57 1015.0
20220705054055 83 0 0.0 3.0 0.00 0.00 0.00 57 1015.0
20220705053144 83 210 1.0 4.0 0.00 0.00 0.00 57 1014.8
20220705052644 82 0 0.0 2.0 0.00 0.00 0.00 57 1014.9
20220705052144 82 0 0.0 2.0 0.00 0.00 0.00 58 1015.0
20220705051644 82 0 0.0 1.0 0.00 0.00 0.00 57 1014.7
20220705051144 81 0 0.0 0.0 0.00 0.00 0.00 56 1014.9
20220705050644 81 0 0.0 0.0 0.00 0.00 0.00 55 1014.9
20220705050050 80 0 0.0 0.0 0.00 0.00 0.00 54 1014.8
20220705045549 80 0 0.0 0.0 0.00 0.00 0.00 55 1014.7
20220705045047 80 0 0.0 0.0 0.00 0.00 0.00 55 1014.8
20220705044554 79 0 0.0 0.0 0.00 0.00 0.00 55 1014.7
20220705044047 78 0 0.0 0.0 0.00 0.00 0.00 56 1014.7